Time;durP1;ratioP1;P1;durP2;ratioP2;P2;SDS_P1;SDS_P2;PMS_P1;PMS_P2;Temp;Humidity;BMP_temperature;BMP_pressure;BME280_temperature;BME280_humidity;BME280_pressure;Samples;Min_cycle;Max_cycle;Signal;HPM_P1;HPM_P2
2023/12/29 00:02:10;;;;;;;5.20;1.45;;;;;;;;;;5071144;28;42795;-68
2023/12/29 00:04:37;;;;;;;6.30;1.65;;;;;;;;;;5075178;28;41852;-71
2023/12/29 00:07:05;;;;;;;3.80;1.10;;;;;;;;;;5065674;28;41110;-74
2023/12/29 00:09:40;;;;;;;4.97;1.60;;;;;;;;;;5051420;28;42882;-73
2023/12/29 00:12:08;;;;;;;7.57;1.80;;;;;;;;;;5058968;28;41562;-74
2023/12/29 00:14:37;;;;;;;4.32;1.23;;;;;;;;;;5062262;28;42090;-76
2023/12/29 00:17:05;;;;;;;7.82;1.98;;;;;;;;;;5066294;28;42484;-76
2023/12/29 00:19:35;;;;;;;4.80;1.42;;;;;;;;;;5063476;28;41520;-75
2023/12/29 00:22:03;;;;;;;5.68;1.90;;;;;;;;;;5063967;28;41675;-75
2023/12/29 00:24:32;;;;;;;3.65;1.40;;;;;;;;;;5053297;28;40316;-74
2023/12/29 00:27:00;;;;;;;4.43;1.70;;;;;;;;;;5064305;28;42041;-73
2023/12/29 00:29:32;;;;;;;4.55;1.35;;;;;;;;;;5063509;28;42695;-73
2023/12/29 00:32:02;;;;;;;7.85;1.30;;;;;;;;;;5057272;28;42040;-72
2023/12/29 00:34:32;;;;;;;5.90;1.20;;;;;;;;;;5059199;28;41309;-72
2023/12/29 00:37:02;;;;;;;4.55;1.30;;;;;;;;;;5043855;28;39757;-72
2023/12/29 00:39:38;;;;;;;7.10;1.95;;;;;;;;;;5062921;28;41269;-73
2023/12/29 00:42:06;;;;;;;4.93;1.52;;;;;;;;;;5049120;28;40435;-72
2023/12/29 00:44:35;;;;;;;4.85;1.38;;;;;;;;;;5042271;28;40949;-72
2023/12/29 00:47:03;;;;;;;6.60;1.50;;;;;;;;;;5064011;28;41790;-72
2023/12/29 00:49:31;;;;;;;4.53;1.27;;;;;;;;;;5041256;28;39574;-72
2023/12/29 00:52:00;;;;;;;5.20;1.35;;;;;;;;;;5059726;28;41731;-72
2023/12/29 00:54:29;;;;;;;3.88;1.17;;;;;;;;;;5064881;28;42381;-72
2023/12/29 00:56:57;;;;;;;5.47;1.55;;;;;;;;;;5068754;28;33121;-72
2023/12/29 00:59:25;;;;;;;3.42;1.58;;;;;;;;;;5066533;28;41486;-73
2023/12/29 01:01:53;;;;;;;6.65;1.90;;;;;;;;;;5059450;28;41520;-73
2023/12/29 01:04:21;;;;;;;3.17;1.38;;;;;;;;;;5065944;28;41258;-72
2023/12/29 01:06:49;;;;;;;4.32;1.50;;;;;;;;;;5040266;28;40600;-73
2023/12/29 01:09:17;;;;;;;4.30;1.42;;;;;;;;;;5066543;28;41879;-73
2023/12/29 01:11:47;;;;;;;3.65;1.42;;;;;;;;;;5057192;28;41314;-72
2023/12/29 01:14:15;;;;;;;3.47;1.50;;;;;;;;;;5054436;28;41646;-72
2023/12/29 01:16:43;;;;;;;2.85;1.40;;;;;;;;;;5070103;28;43233;-72
2023/12/29 01:19:11;;;;;;;4.93;1.50;;;;;;;;;;5066372;28;42682;-73
2023/12/29 01:21:39;;;;;;;5.88;1.77;;;;;;;;;;5067826;28;42104;-72
2023/12/29 01:24:07;;;;;;;4.30;1.20;;;;;;;;;;5058673;28;40989;-72
2023/12/29 01:26:37;;;;;;;4.70;1.35;;;;;;;;;;5067774;28;42378;-73
2023/12/29 01:29:07;;;;;;;4.22;1.85;;;;;;;;;;5055872;28;42857;-72
2023/12/29 01:31:35;;;;;;;4.45;1.42;;;;;;;;;;5057504;28;40882;-73
2023/12/29 01:34:03;;;;;;;3.53;1.63;;;;;;;;;;5065802;28;41339;-72
2023/12/29 01:36:31;;;;;;;5.03;1.40;;;;;;;;;;5049545;28;40699;-72
2023/12/29 01:38:59;;;;;;;5.53;1.30;;;;;;;;;;5073941;28;42013;-73
2023/12/29 01:41:27;;;;;;;3.33;1.20;;;;;;;;;;5061423;28;42874;-72
2023/12/29 01:44:13;;;;;;;3.78;0.95;;;;;;;;;;5063867;28;40877;-72
2023/12/29 01:46:43;;;;;;;2.53;1.35;;;;;;;;;;5034963;28;40077;-72
2023/12/29 01:49:11;;;;;;;4.90;1.60;;;;;;;;;;5057602;28;43109;-73
2023/12/29 01:51:39;;;;;;;5.88;1.60;;;;;;;;;;5066062;28;41312;-72
2023/12/29 01:54:07;;;;;;;6.35;1.80;;;;;;;;;;5066258;28;42717;-72
2023/12/29 01:56:36;;;;;;;4.07;1.58;;;;;;;;;;5068463;28;41704;-72
2023/12/29 01:59:03;;;;;;;4.80;1.60;;;;;;;;;;5047396;28;39928;-72
2023/12/29 02:01:43;;;;;;;4.70;1.63;;;;;;;;;;5033617;28;40469;-71
2023/12/29 02:04:11;;;;;;;5.25;1.75;;;;;;;;;;5044576;28;40155;-71
2023/12/29 02:06:39;;;;;;;3.45;1.42;;;;;;;;;;5044893;28;40038;-71
2023/12/29 02:09:07;;;;;;;2.38;1.20;;;;;;;;;;5066552;28;42914;-71
2023/12/29 02:11:35;;;;;;;2.95;1.30;;;;;;;;;;5066926;28;41151;-71
2023/12/29 02:14:03;;;;;;;5.25;1.40;;;;;;;;;;5065950;28;41871;-70
2023/12/29 02:16:39;;;;;;;4.43;1.30;;;;;;;;;;5054065;28;40848;-71
2023/12/29 02:19:14;;;;;;;1.83;0.95;;;;;;;;;;5063170;28;40583;-71
2023/12/29 02:21:42;;;;;;;3.75;1.15;;;;;;;;;;5047467;28;41592;-71
2023/12/29 02:24:10;;;;;;;4.70;1.20;;;;;;;;;;5045564;28;41461;-71
2023/12/29 02:26:40;;;;;;;3.28;1.40;;;;;;;;;;5031215;28;40867;-70
2023/12/29 02:29:08;;;;;;;3.35;1.33;;;;;;;;;;5051243;28;43757;-71
2023/12/29 02:31:36;;;;;;;3.55;1.35;;;;;;;;;;5065117;28;41853;-71
2023/12/29 02:34:06;;;;;;;5.25;2.10;;;;;;;;;;5056815;28;41580;-71
2023/12/29 02:36:42;;;;;;;3.75;1.30;;;;;;;;;;5036140;28;40594;-71
2023/12/29 02:39:10;;;;;;;3.65;1.50;;;;;;;;;;5063683;28;41871;-71
2023/12/29 02:41:39;;;;;;;3.63;1.17;;;;;;;;;;5061610;28;41267;-71
2023/12/29 02:44:08;;;;;;;4.60;1.40;;;;;;;;;;5048543;28;41460;-73
2023/12/29 02:46:36;;;;;;;1.88;1.25;;;;;;;;;;5065703;28;41104;-73
2023/12/29 02:49:04;;;;;;;4.78;1.42;;;;;;;;;;5062816;28;42803;-72
2023/12/29 02:51:32;;;;;;;3.22;1.20;;;;;;;;;;5049435;28;40897;-72
2023/12/29 02:54:01;;;;;;;5.85;1.50;;;;;;;;;;5054568;28;40500;-72
2023/12/29 02:56:29;;;;;;;5.55;1.48;;;;;;;;;;5059742;28;42180;-72
2023/12/29 02:58:57;;;;;;;3.15;1.08;;;;;;;;;;5050686;28;41213;-73
2023/12/29 03:01:28;;;;;;;5.78;1.60;;;;;;;;;;5045516;28;40036;-71
2023/12/29 03:03:56;;;;;;;4.05;1.33;;;;;;;;;;5064307;28;41468;-72
2023/12/29 03:06:24;;;;;;;5.93;1.50;;;;;;;;;;5066670;28;42235;-72
2023/12/29 03:08:52;;;;;;;4.22;1.60;;;;;;;;;;5064865;28;42013;-72
2023/12/29 03:11:21;;;;;;;3.72;1.25;;;;;;;;;;5063560;28;41007;-72
2023/12/29 03:13:49;;;;;;;5.22;1.50;;;;;;;;;;5047845;28;40221;-71
2023/12/29 03:16:17;;;;;;;3.78;1.25;;;;;;;;;;5066467;28;41962;-72
2023/12/29 03:18:47;;;;;;;5.70;1.55;;;;;;;;;;5048172;28;40193;-72
2023/12/29 03:21:15;;;;;;;4.30;1.48;;;;;;;;;;5065446;28;42834;-72
2023/12/29 03:23:43;;;;;;;4.97;1.55;;;;;;;;;;5067468;28;42856;-72
2023/12/29 03:26:11;;;;;;;4.43;1.27;;;;;;;;;;5053872;28;42337;-72
2023/12/29 03:28:39;;;;;;;3.95;1.73;;;;;;;;;;5042676;28;40896;-72
2023/12/29 03:31:07;;;;;;;4.68;1.23;;;;;;;;;;5064359;28;41188;-72
2023/12/29 03:33:35;;;;;;;4.15;1.73;;;;;;;;;;5067092;28;40779;-73
2023/12/29 03:36:05;;;;;;;4.10;1.40;;;;;;;;;;5059264;28;42834;-72
2023/12/29 03:38:36;;;;;;;2.42;0.88;;;;;;;;;;5037905;28;40555;-73
2023/12/29 03:41:04;;;;;;;3.22;1.58;;;;;;;;;;5064231;28;41474;-72
2023/12/29 03:43:32;;;;;;;3.88;1.33;;;;;;;;;;5065019;28;42332;-72
2023/12/29 03:46:00;;;;;;;4.03;1.52;;;;;;;;;;5064909;28;41067;-71
2023/12/29 03:48:28;;;;;;;3.95;1.25;;;;;;;;;;5065510;28;41440;-72
2023/12/29 03:50:56;;;;;;;2.40;1.20;;;;;;;;;;5066481;28;42135;-72
2023/12/29 03:53:25;;;;;;;6.30;2.10;;;;;;;;;;5062645;28;41536;-72
2023/12/29 03:55:53;;;;;;;3.53;1.35;;;;;;;;;;5046173;28;41978;-72
2023/12/29 03:58:21;;;;;;;2.80;0.93;;;;;;;;;;5054565;28;42032;-73
2023/12/29 04:00:49;;;;;;;1.75;0.93;;;;;;;;;;5063483;28;42674;-72
2023/12/29 04:03:17;;;;;;;3.45;1.15;;;;;;;;;;5064437;28;42584;-73
2023/12/29 04:05:45;;;;;;;5.03;1.42;;;;;;;;;;5066782;28;41880;-72
2023/12/29 04:08:13;;;;;;;4.57;1.50;;;;;;;;;;5055555;28;41738;-72
2023/12/29 04:10:43;;;;;;;4.60;1.38;;;;;;;;;;5052785;28;41305;-72
2023/12/29 04:13:11;;;;;;;4.03;1.42;;;;;;;;;;5059684;28;41269;-72
2023/12/29 04:15:38;;;;;;;3.42;1.45;;;;;;;;;;5056589;28;42337;-72
2023/12/29 04:18:07;;;;;;;5.28;1.50;;;;;;;;;;5067765;28;41963;-72
2023/12/29 04:20:35;;;;;;;3.85;1.30;;;;;;;;;;5069893;28;41398;-71
2023/12/29 04:23:03;;;;;;;3.83;1.30;;;;;;;;;;5041016;28;41067;-72
2023/12/29 04:25:31;;;;;;;7.03;2.10;;;;;;;;;;5065616;28;41361;-71
2023/12/29 04:28:00;;;;;;;5.43;1.63;;;;;;;;;;5064596;28;42383;-72
2023/12/29 04:30:29;;;;;;;5.97;1.83;;;;;;;;;;5055243;28;42067;-72
2023/12/29 04:32:57;;;;;;;3.88;1.33;;;;;;;;;;5059899;28;41138;-72
2023/12/29 04:35:25;;;;;;;4.95;1.48;;;;;;;;;;5052966;28;41748;-73
2023/12/29 04:37:53;;;;;;;2.20;1.10;;;;;;;;;;5062892;28;42293;-72
2023/12/29 04:40:21;;;;;;;5.15;1.33;;;;;;;;;;5028446;28;40805;-72
2023/12/29 04:42:49;;;;;;;5.20;1.33;;;;;;;;;;5039465;28;40474;-72
2023/12/29 04:45:18;;;;;;;3.58;1.20;;;;;;;;;;5064619;28;42229;-72
2023/12/29 04:47:46;;;;;;;3.00;1.10;;;;;;;;;;5065841;28;42658;-71
2023/12/29 04:50:14;;;;;;;4.70;1.23;;;;;;;;;;5066264;28;42281;-71
2023/12/29 04:52:42;;;;;;;3.38;1.30;;;;;;;;;;5064792;28;41165;-72
2023/12/29 04:55:11;;;;;;;3.55;1.20;;;;;;;;;;5066840;28;42572;-72
2023/12/29 04:57:39;;;;;;;3.63;1.13;;;;;;;;;;5060556;28;41895;-72
2023/12/29 05:00:08;;;;;;;5.82;1.38;;;;;;;;;;5063764;28;41734;-72
2023/12/29 05:02:37;;;;;;;4.68;1.52;;;;;;;;;;5050721;28;42069;-72
2023/12/29 05:05:05;;;;;;;4.30;1.50;;;;;;;;;;5065071;28;41914;-72
2023/12/29 05:07:34;;;;;;;4.15;1.58;;;;;;;;;;5060254;28;41665;-72
2023/12/29 05:10:02;;;;;;;5.32;1.67;;;;;;;;;;5062792;28;43056;-72
2023/12/29 05:12:30;;;;;;;5.68;1.30;;;;;;;;;;5063322;28;41282;-73
2023/12/29 05:14:58;;;;;;;7.53;2.40;;;;;;;;;;5045822;28;40044;-73
2023/12/29 05:17:25;;;;;;;6.57;2.30;;;;;;;;;;5063638;28;42228;-72
2023/12/29 05:19:55;;;;;;;5.32;1.70;;;;;;;;;;5054530;28;42409;-72
2023/12/29 05:22:23;;;;;;;8.13;2.20;;;;;;;;;;5068778;28;43409;-72
2023/12/29 05:24:51;;;;;;;3.88;1.40;;;;;;;;;;5067996;28;42227;-72
2023/12/29 05:27:19;;;;;;;3.50;1.48;;;;;;;;;;5068389;28;42757;-71
2023/12/29 05:29:47;;;;;;;7.22;2.05;;;;;;;;;;5065847;28;41921;-72
2023/12/29 05:32:15;;;;;;;9.73;2.00;;;;;;;;;;5067455;28;41184;-72
2023/12/29 05:34:43;;;;;;;5.32;1.90;;;;;;;;;;5060609;28;41288;-73
2023/12/29 05:37:12;;;;;;;5.38;1.90;;;;;;;;;;5067295;28;43068;-71
2023/12/29 05:39:42;;;;;;;3.55;1.40;;;;;;;;;;5065497;28;41995;-72
2023/12/29 05:42:10;;;;;;;5.75;1.73;;;;;;;;;;5065567;28;41760;-72
2023/12/29 05:44:38;;;;;;;5.45;1.35;;;;;;;;;;5072958;28;42368;-72
2023/12/29 05:47:06;;;;;;;4.05;1.65;;;;;;;;;;5064364;28;41428;-72
2023/12/29 05:49:38;;;;;;;5.22;1.90;;;;;;;;;;5066403;28;42875;-73
2023/12/29 05:52:07;;;;;;;5.20;1.55;;;;;;;;;;5063754;28;42398;-73
2023/12/29 05:54:36;;;;;;;4.93;1.75;;;;;;;;;;5056814;28;43270;-72
2023/12/29 05:57:05;;;;;;;6.68;2.05;;;;;;;;;;5058603;28;42838;-72
2023/12/29 05:59:33;;;;;;;4.60;1.70;;;;;;;;;;5058252;28;41405;-73
2023/12/29 06:02:01;;;;;;;4.70;1.95;;;;;;;;;;5053976;28;41638;-72
2023/12/29 06:04:29;;;;;;;6.88;1.85;;;;;;;;;;5065049;28;41998;-68
2023/12/29 06:06:57;;;;;;;6.40;1.67;;;;;;;;;;5058153;28;42644;-69
2023/12/29 06:09:25;;;;;;;6.63;1.55;;;;;;;;;;5065817;28;43074;-68
2023/12/29 06:11:55;;;;;;;5.43;1.77;;;;;;;;;;5056417;28;41345;-69
2023/12/29 06:14:23;;;;;;;8.77;2.28;;;;;;;;;;5067944;28;41406;-69
2023/12/29 06:16:51;;;;;;;7.25;2.15;;;;;;;;;;5065620;28;42971;-69
2023/12/29 06:19:19;;;;;;;9.45;2.42;;;;;;;;;;5060226;28;41608;-68
2023/12/29 06:21:47;;;;;;;8.13;2.72;;;;;;;;;;5068253;28;41429;-68
2023/12/29 06:24:16;;;;;;;9.77;2.03;;;;;;;;;;5066582;28;41630;-68
2023/12/29 06:26:44;;;;;;;6.00;1.65;;;;;;;;;;5054549;28;42622;-69
2023/12/29 06:29:14;;;;;;;4.85;1.52;;;;;;;;;;5064696;28;43239;-71
2023/12/29 06:31:42;;;;;;;5.55;1.70;;;;;;;;;;5064599;28;40489;-71
2023/12/29 06:34:11;;;;;;;4.88;1.90;;;;;;;;;;5061019;28;42842;-71
2023/12/29 06:36:39;;;;;;;8.77;2.00;;;;;;;;;;5065475;28;41716;-71
2023/12/29 06:39:07;;;;;;;7.78;1.95;;;;;;;;;;5057268;28;41975;-71
2023/12/29 06:41:35;;;;;;;7.57;1.92;;;;;;;;;;5066411;28;42066;-71
2023/12/29 06:44:03;;;;;;;6.85;1.80;;;;;;;;;;5066370;28;41811;-71
2023/12/29 06:46:33;;;;;;;7.60;2.30;;;;;;;;;;5059706;28;42898;-71
2023/12/29 06:49:01;;;;;;;10.43;2.30;;;;;;;;;;5048724;28;40560;-70
2023/12/29 06:51:29;;;;;;;6.35;2.15;;;;;;;;;;5052247;28;40720;-71
2023/12/29 06:53:57;;;;;;;6.50;1.80;;;;;;;;;;5066719;28;41279;-71
2023/12/29 06:56:26;;;;;;;5.00;1.80;;;;;;;;;;5065619;28;43164;-71
2023/12/29 06:58:54;;;;;;;6.65;1.63;;;;;;;;;;5066245;28;40844;-71
2023/12/29 07:01:22;;;;;;;7.30;1.80;;;;;;;;;;5066093;28;41486;-71
2023/12/29 07:03:51;;;;;;;5.53;1.77;;;;;;;;;;5061920;28;41423;-71
2023/12/29 07:06:19;;;;;;;4.53;1.40;;;;;;;;;;5066172;28;41724;-71
2023/12/29 07:08:47;;;;;;;11.05;2.40;;;;;;;;;;5062618;28;42295;-70
2023/12/29 07:11:15;;;;;;;5.03;1.55;;;;;;;;;;5049125;28;41330;-70
2023/12/29 07:13:43;;;;;;;8.77;2.35;;;;;;;;;;5065858;28;41714;-70
2023/12/29 07:16:11;;;;;;;7.38;1.95;;;;;;;;;;5066705;28;41880;-71
2023/12/29 07:18:41;;;;;;;8.30;1.67;;;;;;;;;;5066405;28;41118;-71
2023/12/29 07:21:11;;;;;;;7.97;2.10;;;;;;;;;;5066641;28;41744;-70
2023/12/29 07:23:42;;;;;;;5.40;1.52;;;;;;;;;;5039088;28;40547;-70
2023/12/29 07:26:10;;;;;;;5.78;1.73;;;;;;;;;;5066789;28;42353;-70
2023/12/29 07:28:38;;;;;;;8.02;2.25;;;;;;;;;;5057922;28;42108;-70
2023/12/29 07:31:06;;;;;;;5.50;1.67;;;;;;;;;;5041442;28;40624;-71
2023/12/29 07:33:34;;;;;;;9.10;2.05;;;;;;;;;;5050254;28;41817;-71
2023/12/29 07:36:03;;;;;;;6.05;1.70;;;;;;;;;;5047343;28;43259;-71
2023/12/29 07:38:32;;;;;;;7.20;1.52;;;;;;;;;;5065263;28;40146;-72
2023/12/29 07:41:00;;;;;;;5.60;1.98;;;;;;;;;;5055828;28;41653;-71
2023/12/29 07:43:28;;;;;;;7.03;1.88;;;;;;;;;;5068286;28;40867;-71
2023/12/29 07:45:56;;;;;;;5.68;1.27;;;;;;;;;;5064828;28;40750;-71
2023/12/29 07:48:24;;;;;;;5.28;1.55;;;;;;;;;;5034978;28;40886;-71
2023/12/29 07:50:52;;;;;;;2.65;1.02;;;;;;;;;;5058769;28;42181;-72
2023/12/29 07:53:21;;;;;;;4.80;1.40;;;;;;;;;;5057250;28;41152;-70
2023/12/29 07:55:52;;;;;;;4.70;1.23;;;;;;;;;;5064072;28;43314;-71
2023/12/29 07:58:20;;;;;;;7.15;1.77;;;;;;;;;;5062144;28;41458;-70
2023/12/29 08:00:48;;;;;;;5.38;1.48;;;;;;;;;;5051919;28;42443;-71
2023/12/29 08:03:16;;;;;;;5.78;1.67;;;;;;;;;;5063779;28;42453;-72
2023/12/29 08:05:46;;;;;;;5.32;1.48;;;;;;;;;;5061060;28;41494;-72
2023/12/29 08:08:14;;;;;;;7.68;1.48;;;;;;;;;;5053022;28;42164;-71
2023/12/29 08:10:42;;;;;;;3.20;1.38;;;;;;;;;;5048794;28;42361;-70
2023/12/29 08:13:11;;;;;;;7.05;1.77;;;;;;;;;;5060249;28;41975;-71
2023/12/29 08:15:39;;;;;;;7.40;1.80;;;;;;;;;;5055442;28;41683;-71
2023/12/29 08:18:07;;;;;;;5.05;1.27;;;;;;;;;;5063859;28;41189;-71
2023/12/29 08:20:35;;;;;;;4.78;1.67;;;;;;;;;;5066876;28;42590;-72
2023/12/29 08:23:03;;;;;;;5.82;1.63;;;;;;;;;;5064764;28;42002;-71
2023/12/29 08:25:31;;;;;;;4.95;1.38;;;;;;;;;;5064923;28;41965;-71
2023/12/29 08:27:59;;;;;;;5.00;1.38;;;;;;;;;;5068652;28;42014;-71
2023/12/29 08:30:29;;;;;;;4.90;1.40;;;;;;;;;;5065373;28;43098;-71
2023/12/29 08:32:57;;;;;;;3.05;1.23;;;;;;;;;;5063816;28;42378;-71
2023/12/29 08:35:25;;;;;;;6.07;1.70;;;;;;;;;;5055855;28;42188;-71
2023/12/29 08:37:53;;;;;;;2.90;1.02;;;;;;;;;;5054577;28;42079;-70
2023/12/29 08:40:21;;;;;;;3.15;1.15;;;;;;;;;;5065029;28;42222;-71
2023/12/29 08:42:49;;;;;;;2.58;1.10;;;;;;;;;;5057083;28;43192;-70
2023/12/29 08:45:17;;;;;;;5.45;1.60;;;;;;;;;;5051220;28;41708;-71
2023/12/29 08:47:46;;;;;;;3.38;1.20;;;;;;;;;;5053670;28;41244;-70
2023/12/29 08:50:14;;;;;;;3.35;1.42;;;;;;;;;;5064532;28;42366;-70
2023/12/29 08:52:42;;;;;;;4.35;1.30;;;;;;;;;;5058034;28;41104;-70
2023/12/29 08:55:10;;;;;;;6.55;1.33;;;;;;;;;;5068799;28;41604;-70
2023/12/29 08:57:38;;;;;;;4.43;1.70;;;;;;;;;;5061467;28;42122;-70
2023/12/29 09:00:07;;;;;;;4.53;1.20;;;;;;;;;;5067544;28;41915;-68
2023/12/29 09:02:35;;;;;;;9.20;1.77;;;;;;;;;;5062514;28;42800;-68
2023/12/29 09:05:04;;;;;;;5.10;1.38;;;;;;;;;;5069099;28;41436;-69
2023/12/29 09:07:32;;;;;;;4.60;1.38;;;;;;;;;;5046516;28;41368;-69
2023/12/29 09:10:01;;;;;;;12.50;1.83;;;;;;;;;;5058964;28;42036;-71
2023/12/29 09:12:29;;;;;;;8.23;1.40;;;;;;;;;;5068011;28;40988;-68
2023/12/29 09:14:57;;;;;;;9.02;1.42;;;;;;;;;;5065276;28;42039;-70
2023/12/29 09:17:25;;;;;;;6.75;1.30;;;;;;;;;;5061919;28;42760;-70
2023/12/29 09:19:54;;;;;;;5.75;1.83;;;;;;;;;;5057511;28;41315;-71
2023/12/29 09:22:34;;;;;;;5.22;1.50;;;;;;;;;;5060529;28;43226;-71
2023/12/29 09:25:02;;;;;;;5.53;1.33;;;;;;;;;;5057152;28;41243;-67
2023/12/29 09:27:31;;;;;;;4.60;1.23;;;;;;;;;;5067263;28;41633;-67
2023/12/29 09:29:59;;;;;;;5.97;1.20;;;;;;;;;;5061655;28;43128;-67
2023/12/29 09:32:27;;;;;;;5.40;1.90;;;;;;;;;;5064557;28;41193;-67
2023/12/29 09:34:55;;;;;;;6.80;1.30;;;;;;;;;;5066156;28;41518;-67
2023/12/29 09:37:23;;;;;;;4.97;1.23;;;;;;;;;;5062300;28;40822;-68
2023/12/29 09:39:52;;;;;;;4.30;1.30;;;;;;;;;;5067755;28;41474;-68
2023/12/29 09:42:21;;;;;;;3.40;1.25;;;;;;;;;;5053492;28;42311;-67
2023/12/29 09:44:50;;;;;;;5.07;1.33;;;;;;;;;;5065078;28;41575;-67
2023/12/29 09:47:19;;;;;;;6.53;1.33;;;;;;;;;;5061706;28;40925;-67
2023/12/29 09:49:47;;;;;;;3.22;1.08;;;;;;;;;;5067791;28;42324;-67
2023/12/29 09:52:15;;;;;;;6.25;1.30;;;;;;;;;;5066872;28;42700;-68
2023/12/29 09:54:43;;;;;;;3.15;1.35;;;;;;;;;;5061713;28;41271;-67
2023/12/29 09:57:13;;;;;;;6.38;1.63;;;;;;;;;;5066073;28;42057;-67
2023/12/29 09:59:41;;;;;;;2.80;0.93;;;;;;;;;;5052996;28;42391;-68
2023/12/29 10:02:11;;;;;;;11.90;1.40;;;;;;;;;;5055928;28;42852;-67
2023/12/29 10:04:39;;;;;;;3.63;1.05;;;;;;;;;;5065778;28;42640;-67
2023/12/29 10:07:08;;;;;;;6.50;1.40;;;;;;;;;;5063152;28;40819;-67
2023/12/29 10:09:36;;;;;;;4.22;0.98;;;;;;;;;;5064522;28;42773;-69
2023/12/29 10:12:05;;;;;;;8.15;1.17;;;;;;;;;;5056944;28;40838;-67
2023/12/29 10:14:37;;;;;;;3.50;1.10;;;;;;;;;;5067509;28;42390;-68
2023/12/29 10:17:07;;;;;;;4.30;1.20;;;;;;;;;;5059453;28;41603;-68
2023/12/29 10:19:37;;;;;;;3.95;1.35;;;;;;;;;;5058981;28;41323;-67
2023/12/29 10:22:07;;;;;;;3.92;1.30;;;;;;;;;;5064971;28;42677;-67
2023/12/29 10:24:36;;;;;;;2.97;1.10;;;;;;;;;;5060859;28;42816;-67
2023/12/29 10:27:04;;;;;;;4.00;1.10;;;;;;;;;;5067173;28;41395;-66
2023/12/29 10:29:32;;;;;;;4.03;1.17;;;;;;;;;;5067737;28;41737;-66
2023/12/29 10:32:01;;;;;;;4.15;1.05;;;;;;;;;;5051742;28;40239;-66
2023/12/29 10:34:30;;;;;;;4.53;1.20;;;;;;;;;;5061442;28;41612;-66
2023/12/29 10:36:58;;;;;;;4.63;1.30;;;;;;;;;;5065257;28;42852;-69
2023/12/29 10:39:26;;;;;;;4.10;1.20;;;;;;;;;;5065940;28;40595;-68
2023/12/29 10:42:03;;;;;;;3.40;1.05;;;;;;;;;;5053674;28;41192;-69
2023/12/29 10:44:31;;;;;;;4.93;1.20;;;;;;;;;;5060793;28;41954;-67
2023/12/29 10:46:58;;;;;;;3.20;1.00;;;;;;;;;;5049652;28;41558;-67
2023/12/29 10:49:28;;;;;;;2.55;0.82;;;;;;;;;;5064036;28;40690;-68
2023/12/29 10:51:56;;;;;;;7.63;1.10;;;;;;;;;;5065056;28;42103;-68
2023/12/29 10:54:24;;;;;;;2.45;1.00;;;;;;;;;;5057025;28;41845;-68
2023/12/29 10:57:01;;;;;;;3.08;1.10;;;;;;;;;;5065129;28;41797;-68
2023/12/29 10:59:29;;;;;;;2.67;1.00;;;;;;;;;;5057287;28;40992;-68
2023/12/29 11:01:57;;;;;;;3.17;1.00;;;;;;;;;;5065558;28;41369;-68
2023/12/29 11:04:30;;;;;;;1.88;1.05;;;;;;;;;;5060326;28;41841;-68
2023/12/29 11:06:58;;;;;;;5.40;1.00;;;;;;;;;;5066163;28;42393;-68
2023/12/29 11:09:29;;;;;;;1.70;0.70;;;;;;;;;;5036162;28;41072;-68
2023/12/29 11:11:58;;;;;;;3.15;1.10;;;;;;;;;;5060337;28;40888;-69
2023/12/29 11:14:28;;;;;;;2.70;1.20;;;;;;;;;;5063946;28;41819;-68
2023/12/29 11:16:55;;;;;;;1.65;0.68;;;;;;;;;;5065294;28;42698;-74
2023/12/29 11:19:23;;;;;;;3.05;0.93;;;;;;;;;;5061988;28;41254;-74
2023/12/29 11:21:54;;;;;;;1.80;0.90;;;;;;;;;;5056843;28;40913;-74
2023/12/29 11:24:22;;;;;;;4.25;1.08;;;;;;;;;;5064672;28;43274;-71
2023/12/29 11:27:02;;;;;;;2.97;0.95;;;;;;;;;;5043561;28;41077;-71
2023/12/29 11:29:30;;;;;;;3.10;0.80;;;;;;;;;;5060279;28;41334;-74
2023/12/29 11:31:58;;;;;;;4.10;1.17;;;;;;;;;;5060666;28;32499;-76
2023/12/29 11:34:27;;;;;;;5.75;0.98;;;;;;;;;;5044879;28;41667;-73
2023/12/29 11:36:58;;;;;;;2.58;1.00;;;;;;;;;;5057314;28;41855;-74
2023/12/29 11:39:29;;;;;;;2.67;0.80;;;;;;;;;;5055078;28;40800;-74
2023/12/29 11:41:58;;;;;;;3.78;0.98;;;;;;;;;;5051497;28;41844;-73
2023/12/29 11:44:26;;;;;;;5.10;1.42;;;;;;;;;;5054170;28;41469;-78
2023/12/29 11:46:54;;;;;;;2.78;1.15;;;;;;;;;;5061454;28;41295;-76
2023/12/29 11:49:22;;;;;;;2.80;0.95;;;;;;;;;;5059462;28;42176;-76
2023/12/29 11:51:50;;;;;;;4.18;1.10;;;;;;;;;;5064068;28;41696;-77
2023/12/29 11:54:26;;;;;;;3.17;1.55;;;;;;;;;;5065933;28;41315;-75
2023/12/29 11:56:54;;;;;;;3.70;1.30;;;;;;;;;;5063836;28;42298;-74
2023/12/29 11:59:23;;;;;;;3.13;2.08;;;;;;;;;;5067995;28;41801;-75
2023/12/29 12:01:51;;;;;;;5.35;3.13;;;;;;;;;;5056052;28;41658;-75
2023/12/29 12:04:34;;;;;;;4.50;1.75;;;;;;;;;;5068661;28;42682;-74
2023/12/29 12:07:03;;;;;;;5.20;3.42;;;;;;;;;;5067055;28;41268;-77
2023/12/29 12:09:34;;;;;;;6.00;2.00;;;;;;;;;;5068861;28;41680;-77
2023/12/29 12:12:03;;;;;;;4.07;2.33;;;;;;;;;;5052874;28;42006;-76
2023/12/29 12:14:50;;;;;;;6.78;5.78;;;;;;;;;;5064437;28;40488;-76
2023/12/29 12:17:28;;;;;;;4.47;2.38;;;;;;;;;;5058508;28;42146;-76
2023/12/29 12:20:00;;;;;;;6.03;5.43;;;;;;;;;;5045856;28;41372;-78
2023/12/29 12:22:30;;;;;;;5.93;2.08;;;;;;;;;;5050162;28;41322;-75
2023/12/29 12:24:59;;;;;;;5.07;2.22;;;;;;;;;;5061653;28;42051;-74
2023/12/29 12:27:27;;;;;;;9.07;4.53;;;;;;;;;;5069074;28;41266;-74
2023/12/29 12:29:57;;;;;;;4.53;2.40;;;;;;;;;;5073058;28;41223;-74
2023/12/29 12:32:25;;;;;;;3.50;1.30;;;;;;;;;;5061509;28;43707;-75
2023/12/29 12:34:53;;;;;;;4.50;2.60;;;;;;;;;;5062888;28;41352;-74
2023/12/29 12:37:22;;;;;;;6.72;4.22;;;;;;;;;;5064861;28;42597;-75
2023/12/29 12:39:50;;;;;;;4.95;3.60;;;;;;;;;;5068023;28;42427;-77
2023/12/29 12:42:19;;;;;;;6.57;2.10;;;;;;;;;;5072135;28;41642;-74
2023/12/29 12:44:50;;;;;;;5.20;2.45;;;;;;;;;;5063442;28;41746;-74
2023/12/29 12:47:19;;;;;;;4.90;2.28;;;;;;;;;;5063691;28;40934;-75
2023/12/29 12:49:47;;;;;;;4.30;1.65;;;;;;;;;;5066380;28;41106;-75
2023/12/29 12:52:16;;;;;;;4.75;2.20;;;;;;;;;;5068028;28;42204;-74
2023/12/29 12:54:44;;;;;;;3.35;1.98;;;;;;;;;;5072678;28;41227;-79
2023/12/29 12:57:12;;;;;;;7.35;1.80;;;;;;;;;;5054636;28;42431;-74
2023/12/29 12:59:41;;;;;;;4.30;2.58;;;;;;;;;;5061238;28;41809;-74
2023/12/29 13:02:10;;;;;;;4.72;1.55;;;;;;;;;;5064132;28;41877;-75
2023/12/29 13:04:40;;;;;;;5.97;2.10;;;;;;;;;;5067847;28;42182;-74
2023/12/29 13:07:08;;;;;;;4.72;2.00;;;;;;;;;;5067545;28;42466;-73
2023/12/29 13:09:37;;;;;;;4.18;1.67;;;;;;;;;;5067454;28;41665;-72
2023/12/29 13:12:08;;;;;;;3.63;1.85;;;;;;;;;;5067970;28;42037;-74
2023/12/29 13:14:36;;;;;;;8.23;1.92;;;;;;;;;;5061030;28;41942;-72
2023/12/29 13:17:10;;;;;;;8.38;2.38;;;;;;;;;;5061841;28;41827;-72
2023/12/29 13:19:39;;;;;;;3.38;1.95;;;;;;;;;;5061196;28;41674;-71
2023/12/29 13:22:08;;;;;;;6.63;1.85;;;;;;;;;;5059369;28;41841;-73
2023/12/29 13:24:37;;;;;;;4.13;1.73;;;;;;;;;;5066503;28;42000;-73
2023/12/29 13:27:05;;;;;;;5.22;1.58;;;;;;;;;;5057419;28;41269;-73
2023/12/29 13:29:33;;;;;;;5.97;1.65;;;;;;;;;;5055663;28;41206;-74
2023/12/29 13:32:03;;;;;;;4.97;1.70;;;;;;;;;;5066159;28;42798;-74
2023/12/29 13:34:34;;;;;;;7.85;1.60;;;;;;;;;;5067752;28;41011;-74
2023/12/29 13:37:04;;;;;;;3.78;1.58;;;;;;;;;;5059503;28;41721;-73
2023/12/29 13:39:36;;;;;;;7.72;1.63;;;;;;;;;;5068402;28;42671;-74
2023/12/29 13:42:04;;;;;;;5.47;1.15;;;;;;;;;;5062614;28;42502;-73
2023/12/29 13:44:32;;;;;;;8.02;1.60;;;;;;;;;;5069265;28;43042;-74
2023/12/29 13:47:00;;;;;;;4.80;1.40;;;;;;;;;;5066355;28;41350;-74
2023/12/29 13:49:28;;;;;;;4.88;1.52;;;;;;;;;;5069157;28;42207;-74
2023/12/29 13:51:59;;;;;;;5.38;1.55;;;;;;;;;;5073296;28;41961;-74
2023/12/29 13:54:27;;;;;;;7.70;2.10;;;;;;;;;;5074195;28;41171;-74
2023/12/29 13:56:55;;;;;;;2.20;1.27;;;;;;;;;;5067696;28;41408;-74
2023/12/29 13:59:30;;;;;;;4.47;1.50;;;;;;;;;;5067639;28;42773;-74
2023/12/29 14:01:59;;;;;;;5.03;1.90;;;;;;;;;;5057585;28;41468;-74
2023/12/29 14:04:27;;;;;;;8.38;2.05;;;;;;;;;;5075420;28;41500;-74
2023/12/29 14:06:55;;;;;;;5.68;1.50;;;;;;;;;;5066277;28;41002;-74
2023/12/29 14:09:24;;;;;;;8.38;1.90;;;;;;;;;;5066017;28;41648;-74
2023/12/29 14:11:53;;;;;;;6.65;1.52;;;;;;;;;;5063880;28;40815;-74
2023/12/29 14:14:24;;;;;;;5.88;1.75;;;;;;;;;;5061785;28;42024;-73
2023/12/29 14:16:52;;;;;;;7.35;2.20;;;;;;;;;;5072392;28;42281;-74
2023/12/29 14:19:20;;;;;;;5.68;1.98;;;;;;;;;;5061163;28;42052;-74
2023/12/29 14:21:49;;;;;;;4.55;1.60;;;;;;;;;;5055084;28;41177;-74
2023/12/29 14:24:17;;;;;;;5.63;1.42;;;;;;;;;;5067019;28;42097;-74
2023/12/29 14:26:57;;;;;;;10.07;2.30;;;;;;;;;;5071832;28;42085;-74
2023/12/29 14:29:25;;;;;;;2.78;1.67;;;;;;;;;;5066942;28;41629;-75
2023/12/29 14:31:55;;;;;;;4.45;1.60;;;;;;;;;;5065566;28;42021;-76
2023/12/29 14:34:23;;;;;;;5.38;1.52;;;;;;;;;;5063669;28;41931;-75
2023/12/29 14:36:51;;;;;;;5.10;1.67;;;;;;;;;;5054828;28;41454;-77
2023/12/29 14:39:19;;;;;;;7.00;2.13;;;;;;;;;;5065062;28;41789;-73
2023/12/29 14:41:48;;;;;;;6.65;1.55;;;;;;;;;;5064892;28;40899;-75
2023/12/29 14:44:17;;;;;;;6.22;1.90;;;;;;;;;;5065522;28;42372;-75
2023/12/29 14:46:45;;;;;;;3.75;1.20;;;;;;;;;;5064959;28;42118;-76
2023/12/29 14:49:13;;;;;;;3.67;1.67;;;;;;;;;;5065867;28;41200;-76
2023/12/29 14:51:41;;;;;;;5.43;1.55;;;;;;;;;;5059471;28;42029;-76
2023/12/29 14:54:09;;;;;;;12.07;2.20;;;;;;;;;;5054959;28;41628;-73